Terminal Aerodrome Forecast
Issued by NWS Wilmington, OH

Current Version | Previous Version | Graphics & Text | Print | Product List | Glossary On
Versions: 1 2 3 4 5 6 7 8 9 10 11 12 13 14 15 16 17 18
000
FTUS41 KILN 171356 AAA
TAFCMH
TAF AMD
KCMH 171356Z 1714/1812 24004KT P6SM -SN OVC012
      TEMPO 1714/1716 1SM -SN BR OVC012
     FM171700 25007KT P6SM FEW015 SCT050
     FM172300 24007KT P6SM BKN120
     FM180200 22006KT P6SM SCT150 BKN200
     FM180900 22008KT P6SM SKC=

USA.gov is the U.S. government's official web portal to all federal, state and local government web resources and services.